Time;durP1;ratioP1;P1;durP2;ratioP2;P2;SDS_P1;SDS_P2;PMS_P1;PMS_P2;Temp;Humidity;BMP_temperature;BMP_pressure;BME280_temperature;BME280_humidity;BME280_pressure;Samples;Min_cycle;Max_cycle;Signal;HPM_P1;HPM_P2
2023/03/27 00:00:43;;;;;;;29.08;9.07;;;;;;;;;;10513948;28;20441;-74
2023/03/27 00:06:06;;;;;;;17.75;8.63;;;;;;;;;;10518529;28;20047;-73
2023/03/27 00:11:27;;;;;;;19.80;8.75;;;;;;;;;;10524882;28;20059;-73
2023/03/27 00:16:48;;;;;;;18.38;7.85;;;;;;;;;;10520286;28;20036;-74
2023/03/27 00:22:09;;;;;;;21.10;8.35;;;;;;;;;;10519478;28;20048;-74
2023/03/27 00:27:30;;;;;;;19.58;8.75;;;;;;;;;;10522489;28;20024;-73
2023/03/27 00:32:54;;;;;;;12.23;7.07;;;;;;;;;;10523772;28;20382;-74
2023/03/27 00:38:15;;;;;;;23.05;9.07;;;;;;;;;;10526274;28;20032;-74
2023/03/27 00:43:41;;;;;;;18.67;7.60;;;;;;;;;;10519129;28;20024;-74
2023/03/27 00:49:04;;;;;;;13.43;7.22;;;;;;;;;;10530205;27;20377;-74
2023/03/27 00:54:28;;;;;;;20.88;8.43;;;;;;;;;;10517289;28;20048;-74
2023/03/27 00:59:51;;;;;;;17.15;7.85;;;;;;;;;;10500511;28;20050;-74
2023/03/27 01:05:12;;;;;;;21.75;8.73;;;;;;;;;;10517372;28;20032;-74
2023/03/27 01:10:39;;;;;;;22.92;9.45;;;;;;;;;;10529689;27;20040;-74
2023/03/27 01:16:04;;;;;;;15.20;6.90;;;;;;;;;;10517344;28;20047;-74
2023/03/27 01:21:45;;;;;;;14.10;7.32;;;;;;;;;;10509968;28;20033;-75
2023/03/27 01:27:15;;;;;;;11.03;6.80;;;;;;;;;;10528074;28;20374;-74
2023/03/27 01:32:58;;;;;;;8.57;6.28;;;;;;;;;;10526252;28;20037;-74
2023/03/27 01:38:37;;;;;;;10.32;6.50;;;;;;;;;;10529290;28;20032;-74
2023/03/27 01:44:11;;;;;;;9.52;6.88;;;;;;;;;;10519999;28;20051;-74
2023/03/27 01:49:39;;;;;;;11.48;6.97;;;;;;;;;;10550771;27;20063;-75
2023/03/27 01:55:03;;;;;;;12.13;6.60;;;;;;;;;;10501007;28;20397;-74
2023/03/27 02:00:26;;;;;;;19.08;8.52;;;;;;;;;;10495822;27;20047;-74
2023/03/27 02:05:49;;;;;;;11.02;6.55;;;;;;;;;;10489510;28;20505;-74
2023/03/27 02:11:10;;;;;;;24.90;8.77;;;;;;;;;;10493970;28;20523;-74
2023/03/27 02:16:33;;;;;;;12.57;6.63;;;;;;;;;;10491658;28;20040;-74
2023/03/27 02:21:54;;;;;;;18.38;8.55;;;;;;;;;;10491461;28;20033;-74
2023/03/27 02:27:24;;;;;;;16.00;8.00;;;;;;;;;;10485873;28;20394;-74
2023/03/27 02:32:45;;;;;;;26.50;8.67;;;;;;;;;;10481864;28;20032;-74
2023/03/27 02:38:11;;;;;;;10.20;5.85;;;;;;;;;;10497921;28;20074;-73
2023/03/27 02:43:36;;;;;;;17.10;7.10;;;;;;;;;;10490779;28;20035;-75
2023/03/27 02:48:59;;;;;;;14.50;7.13;;;;;;;;;;10500557;28;20043;-74
2023/03/27 02:54:32;;;;;;;10.88;7.13;;;;;;;;;;10503733;28;20071;-75
2023/03/27 02:59:56;;;;;;;23.60;10.07;;;;;;;;;;10502642;28;20528;-74
2023/03/27 03:05:22;;;;;;;13.40;7.20;;;;;;;;;;10506419;28;20097;-74
2023/03/27 03:10:43;;;;;;;17.48;7.80;;;;;;;;;;10505775;28;20504;-74
2023/03/27 03:16:05;;;;;;;15.35;8.00;;;;;;;;;;10513630;28;20068;-74
2023/03/27 03:21:26;;;;;;;13.40;6.90;;;;;;;;;;10507734;28;20036;-74
2023/03/27 03:26:48;;;;;;;20.17;8.10;;;;;;;;;;10509252;28;20028;-74
2023/03/27 03:32:10;;;;;;;13.38;7.30;;;;;;;;;;10533506;28;20036;-74
2023/03/27 03:37:37;;;;;;;16.05;8.05;;;;;;;;;;10524598;28;20032;-74
2023/03/27 03:42:58;;;;;;;17.23;7.80;;;;;;;;;;10536135;28;20244;-74
2023/03/27 03:48:19;;;;;;;8.70;6.50;;;;;;;;;;10535646;28;20377;-74
2023/03/27 03:53:40;;;;;;;12.07;7.45;;;;;;;;;;10525081;28;20024;-74
2023/03/27 03:59:01;;;;;;;17.10;7.97;;;;;;;;;;10509896;28;20032;-74
2023/03/27 04:04:22;;;;;;;14.23;7.63;;;;;;;;;;10530830;27;20036;-75
2023/03/27 04:09:43;;;;;;;24.83;8.18;;;;;;;;;;10498824;28;20051;-74
2023/03/27 04:15:04;;;;;;;17.75;8.27;;;;;;;;;;10528673;27;20051;-74
2023/03/27 04:20:26;;;;;;;15.48;8.02;;;;;;;;;;10497760;28;20041;-74
2023/03/27 04:25:47;;;;;;;20.33;8.80;;;;;;;;;;10482007;28;20037;-73
2023/03/27 04:31:09;;;;;;;17.70;8.02;;;;;;;;;;10484647;28;20044;-73
2023/03/27 04:36:30;;;;;;;14.95;7.25;;;;;;;;;;10492314;28;20031;-73
2023/03/27 04:41:52;;;;;;;19.48;7.95;;;;;;;;;;10500856;28;20519;-73
2023/03/27 04:47:13;;;;;;;21.73;8.40;;;;;;;;;;10486707;28;20031;-73
2023/03/27 04:52:34;;;;;;;27.77;9.73;;;;;;;;;;10486422;28;20036;-73
2023/03/27 04:57:58;;;;;;;16.27;7.80;;;;;;;;;;10491976;28;20040;-74
2023/03/27 05:03:20;;;;;;;23.00;8.60;;;;;;;;;;10503989;28;20060;-73
2023/03/27 05:08:41;;;;;;;14.00;8.23;;;;;;;;;;10496423;28;20492;-73
2023/03/27 05:14:02;;;;;;;28.10;9.80;;;;;;;;;;10486642;28;20036;-73
2023/03/27 05:19:23;;;;;;;11.65;7.38;;;;;;;;;;10488493;28;20040;-73
2023/03/27 05:24:43;;;;;;;10.75;6.68;;;;;;;;;;10487360;28;20036;-74
2023/03/27 05:30:05;;;;;;;10.35;6.95;;;;;;;;;;10492187;28;20039;-74
2023/03/27 05:35:27;;;;;;;10.45;7.07;;;;;;;;;;10491370;28;20029;-75
2023/03/27 05:40:47;;;;;;;12.18;7.13;;;;;;;;;;10491981;28;20040;-75
2023/03/27 05:46:08;;;;;;;14.57;7.38;;;;;;;;;;10499553;28;20512;-75
2023/03/27 05:51:30;;;;;;;21.63;8.95;;;;;;;;;;10506055;28;20032;-75
2023/03/27 05:56:51;;;;;;;13.52;7.07;;;;;;;;;;10507080;28;20094;-75
2023/03/27 06:02:17;;;;;;;14.25;7.93;;;;;;;;;;10506477;28;20040;-75
2023/03/27 06:07:38;;;;;;;18.70;8.25;;;;;;;;;;10514856;28;20040;-75
2023/03/27 06:13:00;;;;;;;19.30;8.23;;;;;;;;;;10511960;28;20421;-75
2023/03/27 06:18:21;;;;;;;15.15;7.22;;;;;;;;;;10506633;28;20401;-75
2023/03/27 06:23:42;;;;;;;20.67;7.47;;;;;;;;;;10514945;28;20044;-75
2023/03/27 06:29:03;;;;;;;10.70;6.50;;;;;;;;;;10511337;28;20024;-75
2023/03/27 06:34:24;;;;;;;8.75;6.20;;;;;;;;;;10527308;28;20024;-75
2023/03/27 06:39:45;;;;;;;14.90;6.93;;;;;;;;;;10525657;28;20401;-75
2023/03/27 06:45:06;;;;;;;12.25;8.20;;;;;;;;;;10535741;28;20034;-75
2023/03/27 06:50:29;;;;;;;10.85;6.47;;;;;;;;;;10527484;28;20032;-75
2023/03/27 06:55:50;;;;;;;10.13;5.82;;;;;;;;;;10555689;28;20426;-75
2023/03/27 07:01:11;;;;;;;7.07;5.40;;;;;;;;;;10524176;28;20039;-75
2023/03/27 07:06:32;;;;;;;9.55;6.50;;;;;;;;;;10513699;28;20362;-75
2023/03/27 07:11:53;;;;;;;17.45;6.90;;;;;;;;;;10538934;28;20035;-75
2023/03/27 07:17:14;;;;;;;13.50;6.32;;;;;;;;;;10513425;28;20043;-74
2023/03/27 07:22:35;;;;;;;21.70;7.32;;;;;;;;;;10533398;28;20036;-74
2023/03/27 07:27:57;;;;;;;21.13;7.65;;;;;;;;;;10526110;28;20028;-75
2023/03/27 07:33:18;;;;;;;7.72;6.03;;;;;;;;;;10525343;28;20032;-75
2023/03/27 07:38:40;;;;;;;23.88;8.15;;;;;;;;;;10516867;28;20028;-74
2023/03/27 07:44:01;;;;;;;12.95;6.70;;;;;;;;;;10520560;28;20045;-76
2023/03/27 07:49:22;;;;;;;9.48;6.07;;;;;;;;;;10540592;28;20055;-76
2023/03/27 07:54:43;;;;;;;10.38;5.90;;;;;;;;;;10528183;28;20047;-78
2023/03/27 08:00:10;;;;;;;11.90;5.60;;;;;;;;;;10525455;28;20037;-76
2023/03/27 08:05:31;;;;;;;9.43;4.20;;;;;;;;;;10534976;28;20032;-80
2023/03/27 08:10:52;;;;;;;10.20;4.50;;;;;;;;;;10520044;28;20020;-78
2023/03/27 08:16:15;;;;;;;15.25;4.25;;;;;;;;;;10447796;28;20056;-75
2023/03/27 08:21:37;;;;;;;15.13;4.45;;;;;;;;;;10434585;28;20041;-75
2023/03/27 08:26:58;;;;;;;8.73;3.78;;;;;;;;;;10445602;28;20048;-76
2023/03/27 08:32:19;;;;;;;12.48;3.85;;;;;;;;;;10447227;28;20045;-75
2023/03/27 08:37:40;;;;;;;12.73;4.18;;;;;;;;;;10477427;28;20040;-75
2023/03/27 08:43:05;;;;;;;5.35;3.33;;;;;;;;;;10437196;28;20059;-75
2023/03/27 08:48:30;;;;;;;12.65;3.95;;;;;;;;;;10429155;28;20414;-75
2023/03/27 08:53:59;;;;;;;9.65;4.13;;;;;;;;;;10450777;28;20126;-74
2023/03/27 08:59:21;;;;;;;9.02;3.70;;;;;;;;;;10475517;28;20498;-77
2023/03/27 09:04:51;;;;;;;9.05;3.95;;;;;;;;;;10466301;28;20048;-76
2023/03/27 09:10:16;;;;;;;8.70;4.43;;;;;;;;;;10460509;28;20432;-76
2023/03/27 09:15:41;;;;;;;6.80;3.95;;;;;;;;;;10472194;28;20162;-77
2023/03/27 09:21:09;;;;;;;8.13;4.32;;;;;;;;;;10451183;28;20037;-76
2023/03/27 09:26:34;;;;;;;8.32;4.00;;;;;;;;;;10453634;28;20053;-76
2023/03/27 09:31:57;;;;;;;6.88;3.80;;;;;;;;;;10465352;28;20040;-76
2023/03/27 09:37:18;;;;;;;14.18;6.57;;;;;;;;;;10445338;28;20052;-76
2023/03/27 09:42:40;;;;;;;10.15;5.63;;;;;;;;;;10438224;28;20041;-76
2023/03/27 09:48:01;;;;;;;9.55;4.95;;;;;;;;;;10448069;28;20047;-76
2023/03/27 09:53:23;;;;;;;8.52;4.97;;;;;;;;;;10437102;28;20056;-76
2023/03/27 09:58:45;;;;;;;13.13;5.45;;;;;;;;;;10461599;28;20053;-76
2023/03/27 10:04:10;;;;;;;12.05;5.97;;;;;;;;;;10448384;28;20048;-76
2023/03/27 10:09:33;;;;;;;8.32;5.65;;;;;;;;;;10459653;28;20051;-76
2023/03/27 10:14:54;;;;;;;6.70;4.82;;;;;;;;;;10445826;28;20420;-75
2023/03/27 10:20:16;;;;;;;11.77;5.20;;;;;;;;;;10460773;28;20094;-76
2023/03/27 10:25:38;;;;;;;9.25;5.43;;;;;;;;;;10430216;28;20056;-76
2023/03/27 10:31:00;;;;;;;12.73;6.68;;;;;;;;;;10443966;28;20041;-79
2023/03/27 10:36:21;;;;;;;21.70;7.70;;;;;;;;;;10445775;28;20053;-77
2023/03/27 10:41:45;;;;;;;13.68;6.35;;;;;;;;;;10440021;28;20053;-78
2023/03/27 10:47:21;;;;;;;13.93;6.45;;;;;;;;;;10442510;28;20055;-78
2023/03/27 10:52:49;;;;;;;16.55;6.32;;;;;;;;;;10434518;28;20608;-77
2023/03/27 10:58:22;;;;;;;13.63;7.40;;;;;;;;;;10445591;28;20056;-77
2023/03/27 11:03:49;;;;;;;11.73;5.50;;;;;;;;;;10454567;28;20059;-77
2023/03/27 11:09:14;;;;;;;9.55;5.90;;;;;;;;;;10450631;28;20048;-76
2023/03/27 11:14:42;;;;;;;11.38;6.80;;;;;;;;;;10444011;28;20082;-77
2023/03/27 11:20:06;;;;;;;17.35;8.02;;;;;;;;;;10448561;28;20382;-76
2023/03/27 11:25:47;;;;;;;10.00;7.07;;;;;;;;;;10456982;28;20048;-77
2023/03/27 11:31:13;;;;;;;8.27;5.40;;;;;;;;;;10443229;28;20489;-76
2023/03/27 11:36:42;;;;;;;18.80;7.78;;;;;;;;;;10457216;28;20498;-78
2023/03/27 11:42:09;;;;;;;12.73;6.47;;;;;;;;;;10432380;28;20049;-76
2023/03/27 11:47:49;;;;;;;7.20;5.80;;;;;;;;;;10451735;28;20159;-77
2023/03/27 11:53:21;;;;;;;14.95;6.88;;;;;;;;;;10428588;28;20399;-73
2023/03/27 11:58:57;;;;;;;6.60;4.53;;;;;;;;;;10444792;28;20419;-75
2023/03/27 12:04:17;;;;;;;6.78;5.25;;;;;;;;;;10436254;28;20049;-75
2023/03/27 12:09:59;;;;;;;7.50;5.30;;;;;;;;;;10442382;28;20068;-74
2023/03/27 12:15:20;;;;;;;;;;;;;;;;;;10446161;28;20513;-76
2023/03/27 12:20:48;;;;;;;15.40;6.23;;;;;;;;;;10478528;28;19916;-75
2023/03/27 12:26:15;;;;;;;10.27;5.13;;;;;;;;;;10455700;28;20652;-75
2023/03/27 12:31:42;;;;;;;6.20;4.63;;;;;;;;;;10441230;28;20058;-75
2023/03/27 12:37:04;;;;;;;10.82;5.90;;;;;;;;;;10445760;28;20080;-74
2023/03/27 12:42:44;;;;;;;7.07;4.88;;;;;;;;;;10437152;28;20041;-75
2023/03/27 12:48:08;;;;;;;9.50;5.63;;;;;;;;;;10449424;28;20044;-75
2023/03/27 12:53:29;;;;;;;10.48;5.50;;;;;;;;;;10447656;28;20474;-74
2023/03/27 12:58:52;;;;;;;10.38;6.00;;;;;;;;;;10447806;28;20627;-74
2023/03/27 13:04:12;;;;;;;11.27;5.22;;;;;;;;;;10449539;28;20056;-75
2023/03/27 13:09:36;;;;;;;9.18;4.97;;;;;;;;;;10451078;28;20048;-76
2023/03/27 13:15:00;;;;;;;16.02;6.55;;;;;;;;;;10449700;28;20383;-77
2023/03/27 13:20:33;;;;;;;19.55;7.93;;;;;;;;;;10454733;28;20037;-76
2023/03/27 13:26:14;;;;;;;10.38;6.20;;;;;;;;;;10452194;28;20052;-77
2023/03/27 13:31:44;;;;;;;10.13;4.97;;;;;;;;;;10477057;28;20052;-76
2023/03/27 13:37:08;;;;;;;15.97;7.30;;;;;;;;;;10455530;28;20048;-75
2023/03/27 13:42:33;;;;;;;15.27;6.47;;;;;;;;;;10456288;28;20048;-74
2023/03/27 13:48:18;;;;;;;10.82;5.53;;;;;;;;;;10444345;28;20041;-74
2023/03/27 13:53:57;;;;;;;17.00;5.88;;;;;;;;;;10465154;28;20048;-73
2023/03/27 13:59:18;;;;;;;22.73;8.80;;;;;;;;;;10446033;28;20044;-73
2023/03/27 14:04:45;;;;;;;17.33;7.65;;;;;;;;;;10441908;28;20423;-78
2023/03/27 14:10:07;;;;;;;17.63;6.55;;;;;;;;;;10447723;28;20055;-73
2023/03/27 14:15:36;;;;;;;16.05;6.85;;;;;;;;;;10440355;28;20486;-72
2023/03/27 14:20:59;;;;;;;22.65;7.90;;;;;;;;;;10428422;28;20055;-73
2023/03/27 14:26:23;;;;;;;13.63;6.18;;;;;;;;;;10450171;28;20052;-74
2023/03/27 14:31:44;;;;;;;10.65;5.60;;;;;;;;;;10445961;28;20045;-75
2023/03/27 14:37:21;;;;;;;14.18;6.97;;;;;;;;;;10439604;28;20064;-75
2023/03/27 14:42:46;;;;;;;22.52;6.32;;;;;;;;;;10455442;28;20056;-73
2023/03/27 14:48:10;;;;;;;7.28;5.65;;;;;;;;;;10436838;28;20048;-75
2023/03/27 14:53:35;;;;;;;13.38;5.75;;;;;;;;;;10459333;28;20053;-76
2023/03/27 14:58:57;;;;;;;11.40;6.13;;;;;;;;;;10453795;28;20048;-73
2023/03/27 15:04:18;;;;;;;14.95;7.13;;;;;;;;;;10439897;28;20053;-74
2023/03/27 15:09:40;;;;;;;13.93;6.40;;;;;;;;;;10444025;28;20049;-77
2023/03/27 15:15:02;;;;;;;13.88;6.10;;;;;;;;;;10439223;28;20037;-74
2023/03/27 15:20:26;;;;;;;14.43;6.45;;;;;;;;;;10440104;28;20056;-73
2023/03/27 15:26:00;;;;;;;10.30;5.78;;;;;;;;;;10450060;28;20044;-73
2023/03/27 15:31:24;;;;;;;20.10;7.53;;;;;;;;;;10442779;28;20502;-77
2023/03/27 15:36:49;;;;;;;19.80;6.88;;;;;;;;;;10436974;28;20049;-75
2023/03/27 15:42:11;;;;;;;14.48;6.78;;;;;;;;;;10444526;28;20038;-75
2023/03/27 15:47:32;;;;;;;5.93;4.90;;;;;;;;;;10455041;28;20051;-74
2023/03/27 15:52:56;;;;;;;23.25;7.47;;;;;;;;;;10438590;28;20097;-74
2023/03/27 15:58:24;;;;;;;9.85;5.70;;;;;;;;;;10449669;28;20497;-74
2023/03/27 16:03:46;;;;;;;21.20;5.88;;;;;;;;;;10465840;28;20048;-74
2023/03/27 16:09:16;;;;;;;8.55;5.20;;;;;;;;;;10454014;28;20052;-76
2023/03/27 16:14:46;;;;;;;13.48;4.95;;;;;;;;;;10449069;28;20048;-74
2023/03/27 16:20:11;;;;;;;10.75;6.03;;;;;;;;;;10461438;28;20047;-73
2023/03/27 16:25:32;;;;;;;16.33;6.57;;;;;;;;;;10450798;28;20432;-74
2023/03/27 16:30:53;;;;;;;8.90;4.70;;;;;;;;;;10454905;28;20044;-74
2023/03/27 16:36:15;;;;;;;21.77;7.32;;;;;;;;;;10443175;28;20041;-74
2023/03/27 16:41:36;;;;;;;14.80;6.95;;;;;;;;;;10441941;28;20045;-74
2023/03/27 16:46:57;;;;;;;9.85;5.60;;;;;;;;;;10467724;28;20041;-75
2023/03/27 16:52:18;;;;;;;12.88;5.78;;;;;;;;;;10451532;28;20073;-75
2023/03/27 16:57:40;;;;;;;11.45;6.50;;;;;;;;;;10448279;28;20041;-75
2023/03/27 17:03:01;;;;;;;8.45;5.18;;;;;;;;;;10438033;28;20052;-75
2023/03/27 17:08:22;;;;;;;10.90;5.53;;;;;;;;;;10444032;28;20531;-75
2023/03/27 17:13:43;;;;;;;22.60;7.93;;;;;;;;;;10454568;28;20055;-74
2023/03/27 17:19:04;;;;;;;10.52;6.20;;;;;;;;;;10456685;28;20047;-74
2023/03/27 17:24:25;;;;;;;17.65;7.00;;;;;;;;;;10448320;28;20071;-73
2023/03/27 17:29:46;;;;;;;14.32;6.10;;;;;;;;;;10447127;28;20053;-74
2023/03/27 17:35:07;;;;;;;10.73;5.90;;;;;;;;;;10457931;28;20060;-72
2023/03/27 17:40:28;;;;;;;12.73;5.78;;;;;;;;;;10446146;28;20071;-72
2023/03/27 17:45:49;;;;;;;9.40;5.93;;;;;;;;;;10447014;28;20045;-74
2023/03/27 17:51:10;;;;;;;13.10;5.85;;;;;;;;;;10451538;28;20048;-74
2023/03/27 17:56:31;;;;;;;9.95;5.75;;;;;;;;;;10478550;28;20048;-72
2023/03/27 18:01:52;;;;;;;13.73;6.25;;;;;;;;;;10465994;28;20080;-74
2023/03/27 18:13:15;;;;;;;11.25;6.43;;;;;;;;;;10434401;28;20045;-74
2023/03/27 18:18:37;;;;;;;12.38;6.22;;;;;;;;;;10450489;28;20480;-74
2023/03/27 18:23:59;;;;;;;22.35;8.35;;;;;;;;;;10462604;28;20412;-74
2023/03/27 18:29:21;;;;;;;15.00;6.85;;;;;;;;;;10477724;28;20053;-74
2023/03/27 18:34:42;;;;;;;14.23;6.03;;;;;;;;;;10473548;28;20485;-72
2023/03/27 18:40:07;;;;;;;11.75;6.35;;;;;;;;;;10451454;28;20450;-73
2023/03/27 18:45:27;;;;;;;12.95;6.78;;;;;;;;;;10434838;28;20044;-73
2023/03/27 18:50:59;;;;;;;17.02;8.05;;;;;;;;;;10433530;28;20048;-72
2023/03/27 18:56:20;;;;;;;9.15;6.18;;;;;;;;;;10463659;28;20053;-73
2023/03/27 19:01:41;;;;;;;19.83;8.63;;;;;;;;;;10457688;28;20041;-73
2023/03/27 19:07:01;;;;;;;12.50;6.07;;;;;;;;;;10460039;28;20803;-73
2023/03/27 19:12:22;;;;;;;17.48;6.50;;;;;;;;;;10453821;28;20048;-73
2023/03/27 19:17:43;;;;;;;15.30;6.85;;;;;;;;;;10452612;28;20049;-73
2023/03/27 19:23:04;;;;;;;12.82;6.07;;;;;;;;;;10467047;28;20492;-73
2023/03/27 19:28:25;;;;;;;15.98;7.50;;;;;;;;;;10460667;28;20040;-73
2023/03/27 19:33:46;;;;;;;15.65;6.82;;;;;;;;;;10434278;28;20045;-73
2023/03/27 19:39:07;;;;;;;14.60;6.15;;;;;;;;;;10439248;28;20389;-73
2023/03/27 19:44:30;;;;;;;13.23;6.28;;;;;;;;;;10457204;28;20048;-73
2023/03/27 19:49:51;;;;;;;12.65;7.32;;;;;;;;;;10445207;28;20095;-74
2023/03/27 19:55:12;;;;;;;15.07;6.63;;;;;;;;;;10445946;28;20056;-78
2023/03/27 20:00:33;;;;;;;20.17;7.65;;;;;;;;;;10433320;28;20041;-78
2023/03/27 20:05:55;;;;;;;23.60;9.68;;;;;;;;;;10420490;28;20045;-73
2023/03/27 20:11:16;;;;;;;19.15;7.65;;;;;;;;;;10456481;28;20048;-74
2023/03/27 20:16:39;;;;;;;19.05;8.32;;;;;;;;;;10445373;28;20048;-75
2023/03/27 20:22:02;;;;;;;20.88;8.50;;;;;;;;;;10451425;28;20501;-75
2023/03/27 20:27:23;;;;;;;25.90;9.00;;;;;;;;;;10449221;28;20051;-75
2023/03/27 20:32:44;;;;;;;17.20;7.43;;;;;;;;;;10449013;28;20047;-75
2023/03/27 20:38:05;;;;;;;22.80;8.65;;;;;;;;;;10462218;28;20391;-74
2023/03/27 20:43:29;;;;;;;17.17;8.77;;;;;;;;;;10446113;28;20045;-75
2023/03/27 20:48:54;;;;;;;21.90;7.95;;;;;;;;;;10480551;28;20047;-74
2023/03/27 20:54:15;;;;;;;19.63;7.47;;;;;;;;;;10463522;28;20065;-74
2023/03/27 20:59:36;;;;;;;14.52;7.47;;;;;;;;;;10433853;28;20056;-75
2023/03/27 21:04:57;;;;;;;13.60;7.68;;;;;;;;;;10451526;28;20057;-75
2023/03/27 21:10:20;;;;;;;15.80;8.20;;;;;;;;;;10450142;28;20398;-74
2023/03/27 21:15:40;;;;;;;17.10;7.05;;;;;;;;;;10462215;28;20052;-73
2023/03/27 21:21:02;;;;;;;17.10;8.60;;;;;;;;;;10440361;28;20048;-75
2023/03/27 21:26:23;;;;;;;23.77;8.75;;;;;;;;;;10476990;28;20052;-74
2023/03/27 21:31:44;;;;;;;18.85;7.82;;;;;;;;;;10454491;28;20048;-75
2023/03/27 21:37:05;;;;;;;16.52;7.40;;;;;;;;;;10460282;28;20045;-75
2023/03/27 21:42:25;;;;;;;19.83;8.00;;;;;;;;;;10442783;28;20656;-75
2023/03/27 21:47:47;;;;;;;13.48;7.65;;;;;;;;;;10437803;28;20057;-75
2023/03/27 21:53:09;;;;;;;17.25;8.40;;;;;;;;;;10440273;28;20406;-75
2023/03/27 21:58:29;;;;;;;15.10;6.80;;;;;;;;;;10439485;28;20033;-75
2023/03/27 22:03:50;;;;;;;18.17;7.30;;;;;;;;;;10464452;28;20407;-75
2023/03/27 22:09:11;;;;;;;14.00;6.68;;;;;;;;;;10444432;28;20104;-75
2023/03/27 22:14:32;;;;;;;15.25;7.22;;;;;;;;;;10452424;28;20045;-75
2023/03/27 22:19:53;;;;;;;10.52;7.18;;;;;;;;;;10444723;28;20413;-75
2023/03/27 22:25:14;;;;;;;26.88;9.40;;;;;;;;;;10462925;28;20051;-74
2023/03/27 22:30:35;;;;;;;19.30;7.50;;;;;;;;;;10451512;28;20043;-75
2023/03/27 22:35:56;;;;;;;15.15;7.88;;;;;;;;;;10445040;28;20047;-75
2023/03/27 22:41:17;;;;;;;16.85;7.95;;;;;;;;;;10451534;28;20482;-75
2023/03/27 22:46:38;;;;;;;17.38;7.65;;;;;;;;;;10448460;28;20041;-76
2023/03/27 22:51:59;;;;;;;15.63;7.25;;;;;;;;;;10453992;28;20048;-76
2023/03/27 22:57:20;;;;;;;18.23;8.77;;;;;;;;;;10449764;28;20049;-75
2023/03/27 23:02:41;;;;;;;14.60;6.97;;;;;;;;;;10461941;28;20048;-76
2023/03/27 23:08:01;;;;;;;8.25;6.97;;;;;;;;;;10452367;28;20045;-74
2023/03/27 23:13:23;;;;;;;13.40;6.97;;;;;;;;;;10446895;28;20045;-75
2023/03/27 23:18:44;;;;;;;8.77;6.38;;;;;;;;;;10465708;28;20107;-75
2023/03/27 23:24:05;;;;;;;24.42;9.35;;;;;;;;;;10455059;28;20053;-73
2023/03/27 23:29:26;;;;;;;30.35;10.75;;;;;;;;;;10420681;28;20488;-74
2023/03/27 23:34:47;;;;;;;18.00;8.18;;;;;;;;;;10423547;28;20052;-74
2023/03/27 23:40:08;;;;;;;16.70;7.88;;;;;;;;;;10455327;28;20063;-74
2023/03/27 23:45:29;;;;;;;11.82;6.40;;;;;;;;;;10456387;28;20045;-75
2023/03/27 23:50:50;;;;;;;11.85;7.13;;;;;;;;;;10453549;28;20374;-74
2023/03/27 23:56:11;;;;;;;15.38;7.95;;;;;;;;;;10443119;28;20051;-75
